createdAt,value
2022-08-26T00:01:30.661Z,58.95
2022-08-26T00:03:57.541Z,50.42
2022-08-26T00:06:24.838Z,54.65
2022-08-26T00:08:51.898Z,63.15
2022-08-26T00:11:26.562Z,56.30
2022-08-26T00:13:55.024Z,53.35
2022-08-26T00:16:23.588Z,52.08
2022-08-26T00:18:50.582Z,50.03
2022-08-26T00:21:17.651Z,53.22
2022-08-26T00:23:44.349Z,54.08
2022-08-26T00:26:11.090Z,64.82
2022-08-26T00:28:37.972Z,60.20
2022-08-26T00:31:07.041Z,64.20
2022-08-26T00:33:33.661Z,60.50
2022-08-26T00:36:01.574Z,62.72
2022-08-26T00:38:29.154Z,59.28
2022-08-26T00:40:56.664Z,74.60
2022-08-26T00:43:24.602Z,65.75
2022-08-26T00:45:57.895Z,62.30
2022-08-26T00:48:31.741Z,64.03
2022-08-26T00:51:02.819Z,64.10
2022-08-26T00:53:34.365Z,57.70
2022-08-26T00:56:08.075Z,63.95
2022-08-26T00:58:38.637Z,61.30
2022-08-26T01:01:07.485Z,66.15
2022-08-26T01:03:34.790Z,59.97
2022-08-26T01:06:05.966Z,53.83
2022-08-26T01:08:39.263Z,71.47
2022-08-26T01:11:06.491Z,59.42
2022-08-26T01:13:37.462Z,52.80
2022-08-26T01:16:08.253Z,67.88
2022-08-26T01:18:35.839Z,57.28
2022-08-26T01:21:22.007Z,64.40
2022-08-26T01:23:51.324Z,53.50
2022-08-26T01:26:29.642Z,62.15
2022-08-26T01:29:00.060Z,56.25
2022-08-26T01:31:33.434Z,55.17
2022-08-26T01:34:17.594Z,57.38
2022-08-26T01:36:49.321Z,55.47
2022-08-26T01:39:18.189Z,49.67
2022-08-26T01:41:45.439Z,41.65
2022-08-26T01:44:16.930Z,42.80
2022-08-26T01:46:46.542Z,47.80
2022-08-26T01:49:15.000Z,43.88
2022-08-26T01:51:44.350Z,47.88
2022-08-26T01:54:13.903Z,45.10
2022-08-26T01:56:40.562Z,41.08
2022-08-26T01:59:11.115Z,38.97
2022-08-26T02:01:38.919Z,45.58
2022-08-26T02:04:23.567Z,41.90
2022-08-26T02:06:51.562Z,30.40
2022-08-26T02:09:22.002Z,38.05
2022-08-26T02:11:48.605Z,29.35
2022-08-26T02:14:26.686Z,33.83
2022-08-26T02:16:55.307Z,38.20
2022-08-26T02:19:27.734Z,36.70
2022-08-26T02:21:54.378Z,27.90
2022-08-26T02:24:24.604Z,33.65
2022-08-26T02:26:54.145Z,31.17
2022-08-26T02:29:20.530Z,30.10
2022-08-26T02:31:48.502Z,30.25
2022-08-26T02:34:22.582Z,31.15
2022-08-26T02:36:49.726Z,28.02
2022-08-26T02:39:22.156Z,32.58
2022-08-26T02:41:49.127Z,29.40
2022-08-26T02:44:15.860Z,31.30
2022-08-26T02:46:46.766Z,32.00
2022-08-26T02:49:14.885Z,29.13
2022-08-26T02:51:41.371Z,27.92
2022-08-26T02:54:09.753Z,36.55
2022-08-26T02:56:36.398Z,29.98
2022-08-26T02:59:03.079Z,27.75
2022-08-26T03:01:33.292Z,35.88
2022-08-26T03:04:03.188Z,27.42
2022-08-26T03:06:30.138Z,34.40
2022-08-26T03:08:56.685Z,33.08
2022-08-26T03:11:23.673Z,25.67
2022-08-26T03:13:52.774Z,19.05
2022-08-26T03:16:20.562Z,21.52
2022-08-26T03:18:52.246Z,24.02
2022-08-26T03:21:20.904Z,24.80
2022-08-26T03:23:47.674Z,27.80
2022-08-26T03:26:15.144Z,22.98
2022-08-26T03:29:01.368Z,25.40
2022-08-26T03:31:29.563Z,22.63
2022-08-26T03:33:59.587Z,28.50
2022-08-26T03:36:26.717Z,26.65
2022-08-26T03:38:53.779Z,26.00
2022-08-26T03:41:21.254Z,16.70
2022-08-26T03:43:50.628Z,32.55
2022-08-26T03:46:18.583Z,23.83
2022-08-26T03:48:45.702Z,24.55
2022-08-26T03:51:14.656Z,24.63
2022-08-26T03:53:46.884Z,26.92
2022-08-26T03:56:15.159Z,21.63
2022-08-26T03:58:42.986Z,21.88
2022-08-26T04:01:10.894Z,18.90
2022-08-26T04:03:57.163Z,25.20
2022-08-26T04:06:31.836Z,28.05
2022-08-26T04:09:01.004Z,28.13
2022-08-26T04:11:31.266Z,31.00
2022-08-26T04:14:02.755Z,16.50
2022-08-26T04:16:29.939Z,20.65
2022-08-26T04:18:57.430Z,21.40
2022-08-26T04:21:24.811Z,21.92
2022-08-26T04:23:51.594Z,16.45
2022-08-26T04:26:19.809Z,21.58
2022-08-26T04:28:47.771Z,30.92
2022-08-26T04:31:17.412Z,23.35
2022-08-26T04:33:45.919Z,26.80
2022-08-26T04:36:14.749Z,21.33
2022-08-26T04:38:41.321Z,16.05
2022-08-26T04:41:15.050Z,22.67
2022-08-26T04:43:43.589Z,20.83
2022-08-26T04:46:13.078Z,18.70
2022-08-26T04:48:40.861Z,31.70
2022-08-26T04:51:07.597Z,26.63
2022-08-26T04:53:34.746Z,28.67
2022-08-26T04:56:01.673Z,28.05
2022-08-26T04:58:31.061Z,21.05
2022-08-26T05:00:58.342Z,25.52
2022-08-26T05:03:27.252Z,24.58
2022-08-26T05:05:58.149Z,16.95
2022-08-26T05:08:24.881Z,25.30
2022-08-26T05:10:56.009Z,25.80
2022-08-26T05:13:25.300Z,25.35
2022-08-26T05:15:52.232Z,31.13
2022-08-26T05:18:22.776Z,25.25
2022-08-26T05:20:51.904Z,23.73
2022-08-26T05:23:23.221Z,25.07
2022-08-26T05:25:54.632Z,38.63
2022-08-26T05:28:23.680Z,27.65
2022-08-26T05:30:51.243Z,22.10
2022-08-26T05:33:19.089Z,30.55
2022-08-26T05:35:46.339Z,18.30
2022-08-26T05:38:16.598Z,28.23
2022-08-26T05:40:48.987Z,27.17
2022-08-26T05:43:20.160Z,21.27
2022-08-26T05:45:49.811Z,29.05
2022-08-26T05:48:19.115Z,31.40
2022-08-26T05:50:52.617Z,26.05
2022-08-26T05:53:21.851Z,24.60
2022-08-26T05:55:51.201Z,26.85
2022-08-26T05:58:20.863Z,29.85
2022-08-26T06:01:17.043Z,27.05
2022-08-26T06:03:48.021Z,21.67
2022-08-26T06:06:20.117Z,36.40
2022-08-26T06:08:54.137Z,27.38
2022-08-26T06:11:26.556Z,23.17
2022-08-26T06:13:54.874Z,31.42
2022-08-26T06:16:23.732Z,29.10
2022-08-26T06:18:53.041Z,18.20
2022-08-26T06:21:24.273Z,27.42
2022-08-26T06:24:12.445Z,26.50
2022-08-26T06:26:42.971Z,27.75
2022-08-26T06:29:13.251Z,23.10
2022-08-26T06:31:50.242Z,25.85
2022-08-26T06:34:18.536Z,20.52
2022-08-26T06:36:45.080Z,16.90
2022-08-26T06:39:15.022Z,18.48
2022-08-26T06:41:46.212Z,18.27
2022-08-26T06:44:14.425Z,31.20
2022-08-26T06:46:42.859Z,20.75
2022-08-26T06:49:12.342Z,18.95
2022-08-26T06:51:40.765Z,23.92
2022-08-26T06:54:08.750Z,25.90
2022-08-26T06:56:41.617Z,29.52
2022-08-26T06:59:09.658Z,41.00
2022-08-26T07:01:42.968Z,33.17
2022-08-26T07:04:11.373Z,18.27
2022-08-26T07:06:40.828Z,23.48
2022-08-26T07:09:10.531Z,26.57
2022-08-26T07:11:39.116Z,22.48
2022-08-26T07:14:07.285Z,32.70
2022-08-26T07:16:34.477Z,29.65
2022-08-26T07:19:03.577Z,19.77
2022-08-26T07:21:38.033Z,22.92
2022-08-26T07:24:04.648Z,27.92
2022-08-26T07:26:31.571Z,26.20
2022-08-26T07:29:00.771Z,19.95
2022-08-26T07:31:33.607Z,18.30
2022-08-26T07:34:07.349Z,28.85
2022-08-26T07:36:34.508Z,25.08
2022-08-26T07:39:00.984Z,13.88
2022-08-26T07:43:54.508Z,21.33
2022-08-26T07:46:27.115Z,21.95
2022-08-26T07:48:56.745Z,17.15
2022-08-26T07:51:23.475Z,12.77
2022-08-26T07:53:52.772Z,21.42
2022-08-26T07:56:20.764Z,21.92
2022-08-26T07:58:51.306Z,23.45
2022-08-26T08:01:20.209Z,15.35
2022-08-26T08:03:46.798Z,22.55
2022-08-26T08:06:18.733Z,14.50
2022-08-26T08:08:46.310Z,17.45
2022-08-26T08:11:14.358Z,22.85
2022-08-26T08:13:40.831Z,22.95
2022-08-26T08:16:08.567Z,21.27
2022-08-26T08:18:40.239Z,19.97
2022-08-26T08:21:23.907Z,24.15
2022-08-26T08:23:52.851Z,13.25
2022-08-26T08:26:19.932Z,31.13
2022-08-26T08:28:47.730Z,18.38
2022-08-26T08:31:45.073Z,19.83
2022-08-26T08:34:09.155Z,25.75
2022-08-26T08:36:36.061Z,21.90
2022-08-26T08:39:03.433Z,25.65
2022-08-26T08:42:08.342Z,22.70
2022-08-26T08:44:40.782Z,28.45
2022-08-26T08:47:26.849Z,26.30
2022-08-26T08:49:58.269Z,28.92
2022-08-26T08:52:31.075Z,19.70
2022-08-26T08:54:58.134Z,18.88
2022-08-26T08:57:47.904Z,29.13
2022-08-26T09:00:22.388Z,16.33
2022-08-26T09:03:03.302Z,24.35
2022-08-26T09:08:19.844Z,24.05
2022-08-26T09:10:52.909Z,24.35
2022-08-26T09:13:25.048Z,21.90
2022-08-26T09:16:07.374Z,21.13
2022-08-26T09:18:41.416Z,17.45
2022-08-26T09:21:15.481Z,25.00
2022-08-26T09:23:49.361Z,18.77
2022-08-26T09:26:31.014Z,23.03
2022-08-26T09:32:15.991Z,21.23
2022-08-26T09:34:58.144Z,20.38
2022-08-26T09:40:35.605Z,32.53
2022-08-26T09:43:22.285Z,20.13
2022-08-26T09:45:58.385Z,36.67
2022-08-26T09:48:34.810Z,29.27
2022-08-26T09:51:06.903Z,20.30
2022-08-26T09:53:49.488Z,20.92
2022-08-26T09:56:23.755Z,22.40
2022-08-26T09:58:50.692Z,13.43
2022-08-26T10:01:30.155Z,21.15
2022-08-26T10:04:10.917Z,17.45
2022-08-26T10:06:44.254Z,25.27
2022-08-26T10:09:15.928Z,15.88
2022-08-26T10:11:49.845Z,17.42
2022-08-26T10:14:29.249Z,19.73
2022-08-26T10:17:14.523Z,19.77
2022-08-26T10:19:56.765Z,19.02
2022-08-26T10:23:05.181Z,15.10
2022-08-26T10:26:03.700Z,17.98
2022-08-26T10:28:41.249Z,19.10
2022-08-26T10:31:27.904Z,17.92
2022-08-26T10:34:00.035Z,12.30
2022-08-26T10:40:00.202Z,10.38
2022-08-26T10:42:37.597Z,12.13
2022-08-26T10:45:25.200Z,15.73
2022-08-26T10:48:02.129Z,16.00
2022-08-26T10:50:35.924Z,21.70
2022-08-26T10:53:45.724Z,17.40
2022-08-26T10:56:18.970Z,13.20
2022-08-26T10:59:10.404Z,13.48
2022-08-26T11:01:51.038Z,15.30
2022-08-26T11:04:25.011Z,12.68
2022-08-26T11:07:32.575Z,18.27
2022-08-26T11:10:01.722Z,14.60
2022-08-26T11:12:37.515Z,11.80
2022-08-26T11:15:08.711Z,13.27
2022-08-26T11:17:44.274Z,12.80
2022-08-26T11:20:23.694Z,12.02
2022-08-26T11:22:52.241Z,11.02
2022-08-26T11:25:29.951Z,11.10
2022-08-26T11:28:00.681Z,11.13
2022-08-26T11:30:36.829Z,18.30
2022-08-26T11:33:03.507Z,12.75
2022-08-26T11:35:34.360Z,13.07
2022-08-26T11:38:19.673Z,7.07
2022-08-26T11:41:11.839Z,12.65
2022-08-26T11:43:40.501Z,11.80
2022-08-26T11:46:10.555Z,11.32
2022-08-26T11:48:42.485Z,12.52
2022-08-26T11:51:11.047Z,17.15
2022-08-26T11:53:40.695Z,16.15
2022-08-26T11:56:26.136Z,15.90
2022-08-26T11:58:58.409Z,14.25
2022-08-26T12:01:32.274Z,16.10
2022-08-26T12:03:59.900Z,14.15
2022-08-26T12:06:37.711Z,10.48
2022-08-26T12:09:22.985Z,7.90
2022-08-26T12:11:49.668Z,11.20
2022-08-26T12:14:24.206Z,10.20
2022-08-26T12:16:51.969Z,13.52
2022-08-26T12:19:33.255Z,18.40
2022-08-26T12:22:21.781Z,17.08
2022-08-26T12:24:52.174Z,14.65
2022-08-26T12:27:25.313Z,10.32
2022-08-26T12:30:09.386Z,12.75
2022-08-26T12:32:57.271Z,14.90
2022-08-26T12:35:25.392Z,13.23
2022-08-26T12:37:53.942Z,14.65
2022-08-26T12:40:43.750Z,10.35
2022-08-26T12:43:12.690Z,11.95
2022-08-26T12:45:57.593Z,8.75
2022-08-26T12:48:30.082Z,13.30
2022-08-26T12:50:57.687Z,11.90
2022-08-26T12:53:40.735Z,15.50
2022-08-26T12:56:39.782Z,12.45
2022-08-26T12:59:20.929Z,11.88
2022-08-26T13:01:48.471Z,16.58
2022-08-26T13:04:42.609Z,15.25
2022-08-26T13:07:23.155Z,11.32
2022-08-26T13:09:54.896Z,17.00
2022-08-26T13:12:25.652Z,10.52
2022-08-26T13:14:52.305Z,17.88
2022-08-26T13:17:18.848Z,17.65
2022-08-26T13:19:45.336Z,10.95
2022-08-26T13:22:13.609Z,12.23
2022-08-26T13:24:42.502Z,13.13
2022-08-26T13:27:11.556Z,19.33
2022-08-26T13:29:38.053Z,11.90
2022-08-26T13:32:06.258Z,8.23
2022-08-26T13:34:33.395Z,8.68
2022-08-26T13:36:59.938Z,16.65
2022-08-26T13:39:27.149Z,86.57
2022-08-26T13:41:54.289Z,7.82
2022-08-26T13:44:21.635Z,19.20
2022-08-26T13:46:48.499Z,19.38
2022-08-26T13:49:15.311Z,67.72
2022-08-26T13:51:41.958Z,22.15
2022-08-26T13:54:08.456Z,13.60
2022-08-26T13:56:36.149Z,11.55
2022-08-26T13:59:03.488Z,18.35
2022-08-26T14:01:32.119Z,17.23
2022-08-26T14:03:58.908Z,21.08
2022-08-26T14:06:25.497Z,26.92
2022-08-26T14:08:52.063Z,24.33
2022-08-26T14:11:18.651Z,32.35
2022-08-26T14:13:45.145Z,29.95
2022-08-26T14:16:18.388Z,31.90
2022-08-26T14:18:50.004Z,33.72
2022-08-26T14:21:17.284Z,26.70
2022-08-26T14:23:43.908Z,21.55
2022-08-26T14:26:11.724Z,21.58
2022-08-26T14:28:55.174Z,24.27
2022-08-26T14:31:23.458Z,26.52
2022-08-26T14:33:50.241Z,16.90
2022-08-26T14:36:28.525Z,9.35
2022-08-26T14:38:57.170Z,12.45
2022-08-26T14:41:28.074Z,10.55
2022-08-26T14:44:02.208Z,10.57
2022-08-26T14:46:31.636Z,8.93
2022-08-26T14:49:01.769Z,13.25
2022-08-26T14:51:29.609Z,17.38
2022-08-26T14:54:14.486Z,15.60
2022-08-26T14:56:52.067Z,17.52
2022-08-26T14:59:34.525Z,15.02
2022-08-26T15:02:01.433Z,19.10
2022-08-26T15:04:29.502Z,11.75
2022-08-26T15:06:58.552Z,11.88
2022-08-26T15:09:26.088Z,9.57
2022-08-26T15:11:53.158Z,12.73
2022-08-26T15:14:20.980Z,13.50
2022-08-26T15:16:50.095Z,14.20
2022-08-26T15:19:17.976Z,14.60
2022-08-26T15:21:45.530Z,14.10
2022-08-26T15:24:13.193Z,9.75
2022-08-26T15:26:40.269Z,14.32
2022-08-26T15:29:07.133Z,13.27
2022-08-26T15:31:34.324Z,10.13
2022-08-26T15:34:04.551Z,12.50
2022-08-26T15:36:31.945Z,10.15
2022-08-26T15:39:00.262Z,11.35
2022-08-26T15:41:27.674Z,10.40
2022-08-26T15:43:54.150Z,8.57
2022-08-26T15:46:20.861Z,9.45
2022-08-26T15:48:47.553Z,9.15
2022-08-26T15:51:26.286Z,8.35
2022-08-26T15:53:56.154Z,9.43
2022-08-26T15:56:27.273Z,11.10
2022-08-26T15:58:56.345Z,15.23
2022-08-26T16:01:27.737Z,9.85
2022-08-26T16:03:55.659Z,8.82
2022-08-26T16:06:25.643Z,11.73
2022-08-26T16:08:52.086Z,6.78
2022-08-26T16:11:21.402Z,10.70
2022-08-26T16:13:48.601Z,11.18
2022-08-26T16:16:16.573Z,9.73
2022-08-26T16:18:43.778Z,9.07
2022-08-26T16:21:16.493Z,15.63
2022-08-26T16:26:15.228Z,13.68
2022-08-26T16:28:43.625Z,12.27
2022-08-26T16:31:10.786Z,13.68
2022-08-26T16:33:40.629Z,15.23
2022-08-26T16:36:08.453Z,7.57
2022-08-26T16:38:37.470Z,8.50
2022-08-26T16:41:04.854Z,7.70
2022-08-26T16:43:31.467Z,13.07
2022-08-26T16:45:57.942Z,8.82
2022-08-26T16:48:24.757Z,12.93
2022-08-26T16:50:51.665Z,9.10
2022-08-26T16:53:18.759Z,8.10
2022-08-26T16:55:46.948Z,10.07
2022-08-26T16:58:14.584Z,9.13
2022-08-26T17:00:41.410Z,11.43
2022-08-26T17:03:08.152Z,12.40
2022-08-26T17:05:36.203Z,11.57
2022-08-26T17:08:03.783Z,11.95
2022-08-26T17:10:31.095Z,11.23
2022-08-26T17:12:57.753Z,12.02
2022-08-26T17:15:28.085Z,13.27
2022-08-26T17:17:55.260Z,10.93
2022-08-26T17:20:24.066Z,11.77
2022-08-26T17:22:52.265Z,9.77
2022-08-26T17:25:23.670Z,14.82
2022-08-26T17:27:51.042Z,13.85
2022-08-26T17:30:18.112Z,13.50
2022-08-26T17:32:45.446Z,17.20
2022-08-26T17:35:13.589Z,9.95
2022-08-26T17:37:41.083Z,11.30
2022-08-26T17:40:11.102Z,11.20
2022-08-26T17:42:38.762Z,11.68
2022-08-26T17:45:06.054Z,10.70
2022-08-26T17:47:33.893Z,11.27
2022-08-26T17:50:01.276Z,11.95
2022-08-26T17:52:28.736Z,15.07
2022-08-26T17:54:56.304Z,8.95
2022-08-26T17:57:23.811Z,12.38
2022-08-26T17:59:50.637Z,7.22
2022-08-26T18:02:20.913Z,10.23
2022-08-26T18:04:47.498Z,8.60
2022-08-26T18:07:14.009Z,9.52
2022-08-26T18:09:40.532Z,11.32
2022-08-26T18:12:07.497Z,19.02
2022-08-26T18:14:34.279Z,11.95
2022-08-26T18:17:01.309Z,15.68
2022-08-26T18:19:27.816Z,11.05
2022-08-26T18:21:54.269Z,10.75
2022-08-26T18:24:20.772Z,11.55
2022-08-26T18:26:50.925Z,9.95
2022-08-26T18:29:19.507Z,15.05
2022-08-26T18:31:46.434Z,11.43
2022-08-26T18:34:15.283Z,11.73
2022-08-26T18:36:42.439Z,17.65
2022-08-26T18:39:10.327Z,12.27
2022-08-26T18:41:48.408Z,12.00
2022-08-26T18:44:16.933Z,11.68
2022-08-26T18:46:44.409Z,8.68
2022-08-26T18:49:15.467Z,15.57
2022-08-26T18:51:43.172Z,7.60
2022-08-26T18:54:11.409Z,9.85
2022-08-26T18:56:39.234Z,14.45
2022-08-26T18:59:07.430Z,10.23
2022-08-26T19:01:35.696Z,11.43
2022-08-26T19:04:04.239Z,12.38
2022-08-26T19:06:32.774Z,10.10
2022-08-26T19:08:59.951Z,15.50
2022-08-26T19:11:30.181Z,11.50
2022-08-26T19:14:00.161Z,13.15
2022-08-26T19:16:27.399Z,12.85
2022-08-26T19:18:55.140Z,14.23
2022-08-26T19:21:22.656Z,15.02
2022-08-26T19:23:49.770Z,15.15
2022-08-26T19:26:16.954Z,16.85
2022-08-26T19:28:43.477Z,18.50
2022-08-26T19:31:11.537Z,14.18
2022-08-26T19:33:43.018Z,11.15
2022-08-26T19:36:15.358Z,10.55
2022-08-26T19:38:42.737Z,15.65
2022-08-26T19:41:34.111Z,11.57
2022-08-26T19:44:10.754Z,13.85
2022-08-26T19:49:08.838Z,8.68
2022-08-26T19:51:36.449Z,15.98
2022-08-26T19:54:03.540Z,11.88
2022-08-26T19:56:30.067Z,19.58
2022-08-26T19:58:56.957Z,9.35
2022-08-26T20:01:24.283Z,7.63
2022-08-26T20:03:51.047Z,11.10
2022-08-26T20:06:18.415Z,12.57
2022-08-26T20:08:45.586Z,9.77
2022-08-26T20:11:15.722Z,9.27
2022-08-26T20:13:43.033Z,13.30
2022-08-26T20:16:11.762Z,10.45
2022-08-26T20:18:58.751Z,9.68
2022-08-26T20:21:29.349Z,7.18
2022-08-26T20:24:00.516Z,10.68
2022-08-26T20:26:29.359Z,8.45
2022-08-26T20:28:56.531Z,10.55
2022-08-26T20:31:24.748Z,12.10
2022-08-26T20:33:51.931Z,18.75
2022-08-26T20:36:23.768Z,10.43
2022-08-26T20:38:50.394Z,9.83
2022-08-26T20:41:18.094Z,9.95
2022-08-26T20:43:45.001Z,9.23
2022-08-26T20:46:18.777Z,14.77
2022-08-26T20:48:48.179Z,13.98
2022-08-26T20:51:16.500Z,12.73
2022-08-26T20:53:44.274Z,12.55
2022-08-26T20:56:13.298Z,9.68
2022-08-26T20:58:40.799Z,8.65
2022-08-26T21:01:08.950Z,9.77
2022-08-26T21:03:36.427Z,12.70
2022-08-26T21:06:03.725Z,11.38
2022-08-26T21:08:33.363Z,10.02
2022-08-26T21:11:00.753Z,14.75
2022-08-26T21:13:35.800Z,9.38
2022-08-26T21:16:11.396Z,10.70
2022-08-26T21:18:38.668Z,13.77
2022-08-26T21:21:07.167Z,11.25
2022-08-26T21:23:34.627Z,14.93
2022-08-26T21:26:03.450Z,10.38
2022-08-26T21:28:29.874Z,11.85
2022-08-26T21:30:56.961Z,8.10
2022-08-26T21:33:23.401Z,9.65
2022-08-26T21:35:53.466Z,8.13
2022-08-26T21:38:20.471Z,8.05
2022-08-26T21:41:00.665Z,12.95
2022-08-26T21:43:34.866Z,10.55
2022-08-26T21:46:07.386Z,11.70
2022-08-26T21:48:35.069Z,12.32
2022-08-26T21:51:04.522Z,9.65
2022-08-26T21:53:31.142Z,7.55
2022-08-26T21:55:57.734Z,13.65
2022-08-26T21:58:24.175Z,8.38
2022-08-26T22:00:51.893Z,13.23
2022-08-26T22:03:18.433Z,11.50
2022-08-26T22:05:50.406Z,9.90
2022-08-26T22:08:22.646Z,11.73
2022-08-26T22:10:52.973Z,12.77
2022-08-26T22:13:21.086Z,10.98
2022-08-26T22:15:48.570Z,13.02
2022-08-26T22:18:16.270Z,14.23
2022-08-26T22:20:43.450Z,10.43
2022-08-26T22:23:10.823Z,10.93
2022-08-26T22:25:37.948Z,11.90
2022-08-26T22:28:04.567Z,10.75
2022-08-26T22:30:31.308Z,15.65
2022-08-26T22:32:57.761Z,14.55
2022-08-26T22:35:29.064Z,9.63
2022-08-26T22:37:57.246Z,16.90
2022-08-26T22:40:24.202Z,11.60
2022-08-26T22:42:55.583Z,11.43
2022-08-26T22:45:26.595Z,13.57
2022-08-26T22:47:53.053Z,9.05
2022-08-26T22:50:19.608Z,13.30
2022-08-26T22:52:46.176Z,10.85
2022-08-26T22:55:12.665Z,11.77
2022-08-26T22:57:39.199Z,12.60
2022-08-26T23:00:06.563Z,16.60
2022-08-26T23:02:32.999Z,8.95
2022-08-26T23:04:59.432Z,11.20
2022-08-26T23:07:25.916Z,12.88
2022-08-26T23:09:52.349Z,10.77
2022-08-26T23:12:18.852Z,15.43
2022-08-26T23:14:45.377Z,14.13
2022-08-26T23:17:12.144Z,10.45
2022-08-26T23:19:38.642Z,9.85
2022-08-26T23:22:05.157Z,11.05
2022-08-26T23:24:32.661Z,16.10
2022-08-26T23:27:00.530Z,12.73
2022-08-26T23:29:27.818Z,12.13
2022-08-26T23:31:54.474Z,12.48
2022-08-26T23:34:39.437Z,11.68
2022-08-26T23:37:06.689Z,12.68
2022-08-26T23:39:34.142Z,11.98
2022-08-26T23:42:01.854Z,11.95
2022-08-26T23:44:30.462Z,10.55
2022-08-26T23:46:58.050Z,9.73
2022-08-26T23:49:25.322Z,13.23
2022-08-26T23:52:11.058Z,12.52
2022-08-26T23:54:38.947Z,13.07
2022-08-26T23:57:06.401Z,10.80
2022-08-26T23:59:33.918Z,12.23
